createdAt,value
2022-12-11T00:00:45.018Z,35.06
2022-12-11T00:03:17.336Z,35.10
2022-12-11T00:05:49.223Z,35.15
2022-12-11T00:08:21.054Z,35.19
2022-12-11T00:10:52.973Z,35.21
2022-12-11T00:13:24.722Z,35.26
2022-12-11T00:15:58.567Z,35.29
2022-12-11T00:18:30.345Z,35.32
2022-12-11T00:21:02.810Z,35.35
2022-12-11T00:23:35.281Z,35.40
2022-12-11T00:26:07.663Z,35.42
2022-12-11T00:28:39.447Z,35.45
2022-12-11T00:31:17.209Z,35.49
2022-12-11T00:33:49.384Z,35.52
2022-12-11T00:36:22.339Z,35.54
2022-12-11T00:38:54.269Z,35.56
2022-12-11T00:41:26.223Z,35.59
2022-12-11T00:43:58.492Z,35.61
2022-12-11T00:46:30.435Z,35.64
2022-12-11T00:49:02.220Z,35.67
2022-12-11T00:51:33.976Z,35.71
2022-12-11T00:54:06.651Z,35.73
2022-12-11T00:56:38.774Z,35.75
2022-12-11T00:59:10.515Z,35.79
2022-12-11T01:01:42.790Z,35.81
2022-12-11T01:04:14.676Z,35.84
2022-12-11T01:06:46.485Z,35.87
2022-12-11T01:09:37.129Z,35.91
2022-12-11T01:12:08.987Z,35.96
2022-12-11T01:14:40.739Z,36.00
2022-12-11T01:17:12.564Z,36.02
2022-12-11T01:19:44.448Z,36.04
2022-12-11T01:22:16.270Z,36.06
2022-12-11T01:24:48.053Z,36.10
2022-12-11T01:27:19.916Z,36.13
2022-12-11T01:29:51.757Z,36.16
2022-12-11T01:32:23.550Z,36.19
2022-12-11T01:34:55.338Z,36.23
2022-12-11T01:37:27.181Z,36.26
2022-12-11T01:39:59.629Z,36.30
2022-12-11T01:42:31.882Z,36.33
2022-12-11T01:45:23.086Z,36.35
2022-12-11T01:48:07.310Z,36.40
2022-12-11T01:50:44.751Z,36.43
2022-12-11T01:53:18.051Z,36.46
2022-12-11T01:55:49.869Z,36.49
2022-12-11T01:58:22.368Z,36.53
2022-12-11T02:00:54.249Z,36.59
2022-12-11T02:03:26.139Z,36.63
2022-12-11T02:06:02.689Z,36.68
2022-12-11T02:08:34.510Z,36.73
2022-12-11T02:11:16.506Z,36.78
2022-12-11T02:14:08.630Z,36.80
2022-12-11T02:16:47.369Z,36.85
2022-12-11T02:19:32.232Z,36.86
2022-12-11T02:22:04.080Z,36.90
2022-12-11T02:24:41.948Z,36.94
2022-12-11T02:27:21.618Z,36.99
2022-12-11T02:29:56.403Z,37.00
2022-12-11T02:32:39.893Z,37.04
2022-12-11T02:35:11.954Z,37.03
2022-12-11T02:37:44.552Z,37.05
2022-12-11T02:40:17.426Z,37.06
2022-12-11T02:42:49.243Z,37.05
2022-12-11T02:45:21.092Z,37.08
2022-12-11T02:47:52.886Z,37.11
2022-12-11T02:50:25.163Z,37.13
2022-12-11T02:52:57.227Z,37.14
2022-12-11T02:55:29.042Z,37.17
2022-12-11T02:58:13.577Z,37.20
2022-12-11T03:00:45.695Z,37.24
2022-12-11T03:03:17.624Z,37.28
2022-12-11T03:05:49.496Z,37.31
2022-12-11T03:08:21.370Z,37.34
2022-12-11T03:10:53.282Z,37.38
2022-12-11T03:13:25.117Z,37.43
2022-12-11T03:15:56.977Z,37.46
2022-12-11T03:18:35.803Z,37.51
2022-12-11T03:21:09.631Z,37.54
2022-12-11T03:23:46.635Z,37.57
2022-12-11T03:26:18.920Z,37.59
2022-12-11T03:29:00.577Z,37.62
2022-12-11T03:31:36.036Z,37.64
2022-12-11T03:34:10.343Z,37.66
2022-12-11T03:36:42.278Z,37.67
2022-12-11T03:39:16.019Z,37.71
2022-12-11T03:41:47.969Z,37.73
2022-12-11T03:44:20.268Z,37.74
2022-12-11T03:46:52.084Z,37.76
2022-12-11T03:49:25.036Z,37.79
2022-12-11T03:51:57.304Z,37.81
2022-12-11T03:54:29.599Z,37.82
2022-12-11T03:57:01.940Z,37.84
2022-12-11T03:59:33.738Z,37.86
2022-12-11T04:02:11.285Z,37.87
2022-12-11T04:04:43.353Z,37.88
2022-12-11T04:07:15.156Z,37.90
2022-12-11T04:09:46.936Z,37.90
2022-12-11T04:12:18.729Z,37.93
2022-12-11T04:15:02.483Z,37.95
2022-12-11T04:17:54.372Z,37.96
2022-12-11T04:20:44.640Z,37.99
2022-12-11T04:23:37.146Z,38.02
2022-12-11T04:26:13.410Z,38.04
2022-12-11T04:28:45.672Z,38.06
2022-12-11T04:31:18.653Z,38.09
2022-12-11T04:33:50.543Z,38.12
2022-12-11T04:36:22.252Z,38.13
2022-12-11T04:38:54.043Z,38.12
2022-12-11T04:41:25.848Z,38.12
2022-12-11T04:43:57.674Z,38.15
2022-12-11T04:46:29.612Z,38.16
2022-12-11T04:49:01.532Z,38.18
2022-12-11T04:51:33.356Z,38.22
2022-12-11T04:54:05.150Z,38.25
2022-12-11T04:56:36.923Z,38.26
2022-12-11T04:59:08.730Z,38.27
2022-12-11T05:01:40.591Z,38.28
2022-12-11T05:04:12.574Z,38.30
2022-12-11T05:06:44.303Z,38.30
2022-12-11T05:09:16.125Z,38.32
2022-12-11T05:11:47.843Z,38.32
2022-12-11T05:14:19.857Z,38.28
2022-12-11T05:16:51.592Z,38.30
2022-12-11T05:19:23.357Z,38.31
2022-12-11T05:21:55.191Z,38.31
2022-12-11T05:24:26.952Z,38.34
2022-12-11T05:26:58.783Z,38.35
2022-12-11T05:29:30.519Z,38.32
2022-12-11T05:32:02.378Z,38.28
2022-12-11T05:34:34.186Z,38.18
2022-12-11T05:37:05.992Z,38.09
2022-12-11T05:39:37.899Z,38.01
2022-12-11T05:42:09.765Z,37.93
2022-12-11T05:44:41.773Z,37.88
2022-12-11T05:47:13.525Z,37.80
2022-12-11T05:49:45.304Z,37.71
2022-12-11T05:52:17.424Z,37.64
2022-12-11T05:54:50.639Z,37.57
2022-12-11T05:57:22.382Z,37.48
2022-12-11T05:59:54.219Z,37.41
2022-12-11T06:02:26.315Z,37.32
2022-12-11T06:04:58.256Z,37.26
2022-12-11T06:07:30.621Z,37.19
2022-12-11T06:10:02.474Z,37.07
2022-12-11T06:12:34.316Z,36.99
2022-12-11T06:15:06.421Z,36.92
2022-12-11T06:17:38.276Z,36.82
2022-12-11T06:20:10.332Z,36.74
2022-12-11T06:22:42.191Z,36.68
2022-12-11T06:25:14.314Z,36.59
2022-12-11T06:27:46.514Z,36.52
2022-12-11T06:30:18.408Z,36.44
2022-12-11T06:32:50.257Z,36.38
2022-12-11T06:35:22.093Z,36.29
2022-12-11T06:37:53.887Z,36.22
2022-12-11T06:40:25.623Z,36.14
2022-12-11T06:42:57.395Z,36.07
2022-12-11T06:45:29.209Z,35.99
2022-12-11T06:48:01.162Z,35.90
2022-12-11T06:50:32.911Z,35.82
2022-12-11T06:53:04.858Z,35.76
2022-12-11T06:55:37.045Z,35.68
2022-12-11T06:58:09.090Z,35.60
2022-12-11T07:00:41.051Z,35.54
2022-12-11T07:03:13.874Z,35.47
2022-12-11T07:05:45.718Z,35.41
2022-12-11T07:08:17.582Z,35.33
2022-12-11T07:10:49.432Z,35.25
2022-12-11T07:13:21.185Z,35.21
2022-12-11T07:15:52.996Z,35.15
2022-12-11T07:18:24.800Z,35.08
2022-12-11T07:20:58.229Z,35.03
2022-12-11T07:23:30.136Z,34.98
2022-12-11T07:26:08.735Z,34.92
2022-12-11T07:28:40.772Z,34.85
2022-12-11T07:31:13.656Z,34.80
2022-12-11T07:33:45.585Z,34.72
2022-12-11T07:36:17.454Z,34.67
2022-12-11T07:38:49.555Z,34.63
2022-12-11T07:41:21.347Z,34.58
2022-12-11T07:43:58.975Z,34.53
2022-12-11T07:46:31.587Z,34.51
2022-12-11T07:49:04.870Z,34.52
2022-12-11T07:51:37.434Z,34.48
2022-12-11T07:54:12.313Z,34.48
2022-12-11T07:56:47.432Z,34.48
2022-12-11T07:59:21.750Z,34.46
2022-12-11T08:01:53.611Z,34.46
2022-12-11T08:04:25.408Z,34.45
2022-12-11T08:06:57.916Z,34.44
2022-12-11T08:09:29.660Z,34.43
2022-12-11T08:12:01.589Z,34.44
2022-12-11T08:14:33.347Z,34.43
2022-12-11T08:17:05.236Z,34.44
2022-12-11T08:19:37.004Z,34.49
2022-12-11T08:22:08.794Z,34.58
2022-12-11T08:24:40.817Z,34.65
2022-12-11T08:27:12.761Z,34.72
2022-12-11T08:29:44.639Z,34.80
2022-12-11T08:32:17.261Z,34.86
2022-12-11T08:34:49.145Z,34.92
2022-12-11T08:37:21.013Z,34.99
2022-12-11T08:39:52.745Z,35.05
2022-12-11T08:42:24.555Z,35.09
2022-12-11T08:44:57.003Z,35.17
2022-12-11T08:47:28.812Z,35.23
2022-12-11T08:50:00.552Z,35.28
2022-12-11T08:52:34.429Z,35.31
2022-12-11T08:55:06.672Z,35.34
2022-12-11T08:57:40.050Z,35.34
2022-12-11T09:00:12.559Z,35.34
2022-12-11T09:02:44.400Z,35.35
2022-12-11T09:05:16.466Z,35.35
2022-12-11T09:07:48.374Z,35.33
2022-12-11T09:10:20.373Z,35.32
2022-12-11T09:12:52.186Z,35.31
2022-12-11T09:15:23.949Z,35.29
2022-12-11T09:17:55.818Z,35.26
2022-12-11T09:20:27.593Z,35.25
2022-12-11T09:22:59.422Z,35.25
2022-12-11T09:25:31.209Z,35.24
2022-12-11T09:28:02.969Z,35.21
2022-12-11T09:30:34.750Z,35.19
2022-12-11T09:33:06.564Z,35.18
2022-12-11T09:35:38.374Z,35.15
2022-12-11T09:38:10.502Z,35.12
2022-12-11T09:40:43.522Z,35.10
2022-12-11T09:43:19.852Z,35.07
2022-12-11T09:45:51.659Z,35.03
2022-12-11T09:48:24.002Z,34.97
2022-12-11T09:50:55.817Z,34.88
2022-12-11T09:53:34.079Z,34.86
2022-12-11T09:56:25.110Z,34.84
2022-12-11T09:59:06.562Z,34.78
2022-12-11T10:01:44.240Z,34.78
2022-12-11T10:04:35.048Z,34.71
2022-12-11T10:07:10.342Z,34.67
2022-12-11T10:09:44.292Z,34.56
2022-12-11T10:12:16.028Z,34.54
2022-12-11T10:14:47.851Z,34.42
2022-12-11T10:17:21.292Z,34.38
2022-12-11T10:19:53.056Z,34.31
2022-12-11T10:22:25.399Z,34.30
2022-12-11T10:25:10.582Z,34.25
2022-12-11T10:27:43.713Z,34.21
2022-12-11T10:30:18.633Z,34.15
2022-12-11T10:32:56.533Z,34.13
2022-12-11T10:35:45.300Z,34.10
2022-12-11T10:38:21.782Z,34.13
2022-12-11T10:40:55.513Z,34.10
2022-12-11T10:43:37.884Z,34.04
2022-12-11T10:46:22.012Z,34.04
2022-12-11T10:48:57.105Z,34.06
2022-12-11T10:51:31.726Z,33.95
2022-12-11T10:54:07.721Z,33.87
2022-12-11T10:56:39.525Z,33.80
2022-12-11T10:59:14.255Z,33.83
2022-12-11T11:01:46.734Z,33.76
2022-12-11T11:04:26.159Z,33.82
2022-12-11T11:07:03.948Z,33.74
2022-12-11T11:09:36.355Z,33.65
2022-12-11T11:12:22.082Z,33.63
2022-12-11T11:15:04.454Z,33.66
2022-12-11T11:17:51.132Z,33.65
2022-12-11T11:20:30.039Z,33.65
2022-12-11T11:23:02.384Z,33.65
2022-12-11T11:25:34.212Z,33.65
2022-12-11T11:28:14.476Z,33.63
2022-12-11T11:30:54.454Z,33.61
2022-12-11T11:33:26.232Z,33.58
2022-12-11T11:36:02.839Z,33.57
2022-12-11T11:38:39.225Z,33.57
2022-12-11T11:41:17.805Z,33.54
2022-12-11T11:44:00.079Z,33.51
2022-12-11T11:46:39.366Z,33.55
2022-12-11T11:49:24.987Z,33.56
2022-12-11T11:51:58.281Z,33.52
2022-12-11T11:54:36.089Z,33.49
2022-12-11T11:57:15.595Z,33.46
2022-12-11T11:59:52.333Z,33.43
2022-12-11T12:02:24.134Z,33.40
2022-12-11T12:04:56.239Z,33.39
2022-12-11T12:07:31.738Z,33.33
2022-12-11T12:10:16.232Z,33.31
2022-12-11T12:12:57.528Z,33.28
2022-12-11T12:15:49.039Z,33.26
2022-12-11T12:18:20.951Z,33.26
2022-12-11T12:20:58.679Z,33.24
2022-12-11T12:23:37.322Z,33.23
2022-12-11T12:26:11.656Z,33.20
2022-12-11T12:29:02.143Z,33.18
2022-12-11T12:31:52.774Z,33.13
2022-12-11T12:34:40.976Z,33.09
2022-12-11T12:37:24.910Z,33.02
2022-12-11T12:40:06.537Z,32.95
2022-12-11T12:42:41.658Z,32.88
2022-12-11T12:45:16.359Z,32.84
2022-12-11T12:47:53.203Z,32.88
2022-12-11T12:50:26.744Z,32.83
2022-12-11T12:52:58.507Z,32.83
2022-12-11T12:55:31.970Z,32.86
2022-12-11T12:58:07.235Z,32.84
2022-12-11T13:00:39.868Z,32.84
2022-12-11T13:03:17.910Z,32.78
2022-12-11T13:06:01.943Z,32.78
2022-12-11T13:08:39.756Z,32.83
2022-12-11T13:11:12.317Z,32.85
2022-12-11T13:13:50.203Z,32.87
2022-12-11T13:16:26.796Z,32.90
2022-12-11T13:18:58.751Z,32.92
2022-12-11T13:21:34.825Z,32.95
2022-12-11T13:24:21.915Z,32.97
2022-12-11T13:26:53.740Z,33.00
2022-12-11T13:29:36.049Z,33.03
2022-12-11T13:32:07.835Z,33.05
2022-12-11T13:34:40.590Z,33.06
2022-12-11T13:37:31.995Z,33.06
2022-12-11T13:40:06.274Z,33.04
2022-12-11T13:42:39.560Z,33.04
2022-12-11T13:45:25.947Z,33.04
2022-12-11T13:47:57.779Z,33.01
2022-12-11T13:50:31.199Z,32.99
2022-12-11T13:53:03.113Z,32.96
2022-12-11T13:55:34.935Z,32.92
2022-12-11T13:58:15.715Z,32.90
2022-12-11T14:00:59.483Z,32.84
2022-12-11T14:03:31.758Z,32.82
2022-12-11T14:06:04.355Z,32.76
2022-12-11T14:08:36.845Z,32.73
2022-12-11T14:11:08.657Z,32.73
2022-12-11T14:13:40.430Z,32.73
2022-12-11T14:16:14.832Z,32.69
2022-12-11T14:18:48.211Z,32.63
2022-12-11T14:21:21.248Z,32.58
2022-12-11T14:23:54.105Z,32.54
2022-12-11T14:26:25.887Z,32.55
2022-12-11T14:28:57.696Z,32.59
2022-12-11T14:31:43.096Z,32.60
2022-12-11T14:34:19.573Z,32.61
2022-12-11T14:36:51.519Z,32.62
2022-12-11T14:39:24.992Z,32.64
2022-12-11T14:42:12.921Z,32.63
2022-12-11T14:44:55.699Z,32.64
2022-12-11T14:47:28.468Z,32.63
2022-12-11T14:50:03.110Z,32.64
2022-12-11T14:52:39.507Z,32.62
2022-12-11T14:55:16.595Z,32.63
2022-12-11T14:57:49.543Z,32.62
2022-12-11T15:00:31.675Z,32.60
2022-12-11T15:03:12.737Z,32.58
2022-12-11T15:05:54.669Z,32.54
2022-12-11T15:08:37.141Z,32.53
2022-12-11T15:11:11.818Z,32.50
2022-12-11T15:14:03.897Z,32.46
2022-12-11T15:16:37.484Z,32.44
2022-12-11T15:19:17.219Z,32.40
2022-12-11T15:21:49.078Z,32.38
2022-12-11T15:24:30.734Z,32.39
2022-12-11T15:27:02.493Z,32.35
2022-12-11T15:29:36.471Z,32.35
2022-12-11T15:32:08.241Z,32.32
2022-12-11T15:34:44.210Z,32.28
2022-12-11T15:37:23.698Z,32.24
2022-12-11T15:39:56.000Z,32.21
2022-12-11T15:42:39.956Z,32.17
2022-12-11T15:45:21.732Z,32.19
2022-12-11T15:47:53.546Z,32.18
2022-12-11T15:50:26.192Z,32.18
2022-12-11T15:52:58.077Z,32.18
2022-12-11T15:55:35.229Z,32.17
2022-12-11T15:58:12.948Z,32.20
2022-12-11T16:00:44.908Z,32.22
2022-12-11T16:03:17.972Z,32.19
2022-12-11T16:05:50.734Z,32.18
2022-12-11T16:08:23.765Z,32.19
2022-12-11T16:10:55.744Z,32.18
2022-12-11T16:13:27.703Z,32.14
2022-12-11T16:15:59.564Z,32.10
2022-12-11T16:18:31.883Z,32.09
2022-12-11T16:21:04.553Z,32.09
2022-12-11T16:23:36.412Z,32.08
2022-12-11T16:26:09.843Z,32.10
2022-12-11T16:28:42.586Z,32.13
2022-12-11T16:31:15.327Z,32.13
2022-12-11T16:33:47.277Z,32.12
2022-12-11T16:36:19.531Z,32.14
2022-12-11T16:38:53.746Z,32.13
2022-12-11T16:41:26.164Z,32.16
2022-12-11T16:43:57.981Z,32.19
2022-12-11T16:46:29.839Z,32.21
2022-12-11T16:49:01.735Z,32.22
2022-12-11T16:51:33.868Z,32.25
2022-12-11T16:54:05.663Z,32.30
2022-12-11T16:56:38.219Z,32.36
2022-12-11T16:59:09.997Z,32.41
2022-12-11T17:01:41.824Z,32.45
2022-12-11T17:04:13.640Z,32.47
2022-12-11T17:06:46.573Z,32.50
2022-12-11T17:09:18.598Z,32.52
2022-12-11T17:11:50.366Z,32.51
2022-12-11T17:14:22.168Z,32.48
2022-12-11T17:16:55.057Z,32.49
2022-12-11T17:19:26.810Z,32.49
2022-12-11T17:21:59.277Z,32.49
2022-12-11T17:24:31.204Z,32.47
2022-12-11T17:27:03.019Z,32.40
2022-12-11T17:29:34.849Z,32.37
2022-12-11T17:32:06.897Z,32.37
2022-12-11T17:34:38.908Z,32.35
2022-12-11T17:37:11.147Z,32.33
2022-12-11T17:39:42.900Z,32.29
2022-12-11T17:42:14.778Z,32.27
2022-12-11T17:44:46.632Z,32.27
2022-12-11T17:47:18.382Z,32.26
2022-12-11T17:49:50.127Z,32.24
2022-12-11T17:52:21.985Z,32.24
2022-12-11T17:54:53.765Z,32.25
2022-12-11T17:57:25.592Z,32.26
2022-12-11T17:59:57.664Z,32.24
2022-12-11T18:02:29.503Z,32.23
2022-12-11T18:05:01.390Z,32.23
2022-12-11T18:07:35.712Z,32.21
2022-12-11T18:10:07.623Z,32.23
2022-12-11T18:12:39.468Z,32.21
2022-12-11T18:15:11.658Z,32.18
2022-12-11T18:17:43.672Z,32.14
2022-12-11T18:20:16.269Z,32.11
2022-12-11T18:22:48.012Z,32.11
2022-12-11T18:25:20.106Z,32.10
2022-12-11T18:27:52.158Z,32.08
2022-12-11T18:30:24.517Z,32.05
2022-12-11T18:32:56.398Z,32.06
2022-12-11T18:35:29.991Z,32.07
2022-12-11T18:38:01.827Z,32.06
2022-12-11T18:40:33.757Z,32.00
2022-12-11T18:43:05.538Z,32.00
2022-12-11T18:45:41.671Z,32.02
2022-12-11T18:48:13.929Z,32.03
2022-12-11T18:50:46.293Z,32.00
2022-12-11T18:53:18.499Z,31.99
2022-12-11T18:55:52.591Z,32.00
2022-12-11T18:58:27.714Z,32.02
2022-12-11T19:00:59.589Z,32.03
2022-12-11T19:03:31.566Z,31.99
2022-12-11T19:06:10.231Z,31.95
2022-12-11T19:08:42.393Z,31.97
2022-12-11T19:11:15.087Z,31.96
2022-12-11T19:13:47.415Z,31.93
2022-12-11T19:16:20.474Z,31.95
2022-12-11T19:18:52.473Z,31.98
2022-12-11T19:21:24.572Z,31.94
2022-12-11T19:23:56.677Z,31.93
2022-12-11T19:26:28.644Z,31.92
2022-12-11T19:29:00.495Z,31.87
2022-12-11T19:31:32.822Z,31.86
2022-12-11T19:34:04.662Z,31.84
2022-12-11T19:36:37.466Z,31.82
2022-12-11T19:39:13.043Z,31.78
2022-12-11T19:41:45.483Z,31.76
2022-12-11T19:44:17.562Z,31.76
2022-12-11T19:46:49.429Z,31.73
2022-12-11T19:49:21.645Z,31.73
2022-12-11T19:51:53.480Z,31.72
2022-12-11T19:54:25.224Z,31.70
2022-12-11T19:56:57.134Z,31.70
2022-12-11T19:59:28.891Z,31.69
2022-12-11T20:02:00.759Z,31.68
2022-12-11T20:04:32.527Z,31.64
2022-12-11T20:07:04.604Z,31.64
2022-12-11T20:09:36.357Z,31.62
2022-12-11T20:12:10.585Z,31.60
2022-12-11T20:14:42.503Z,31.60
2022-12-11T20:17:15.202Z,31.56
2022-12-11T20:19:47.309Z,31.55
2022-12-11T20:22:19.560Z,31.52
2022-12-11T20:24:51.402Z,31.51
2022-12-11T20:27:23.110Z,31.50
2022-12-11T20:29:54.875Z,31.50
2022-12-11T20:32:26.678Z,31.45
2022-12-11T20:34:58.509Z,31.48
2022-12-11T20:37:30.296Z,31.46
2022-12-11T20:40:02.262Z,31.45
2022-12-11T20:42:34.151Z,31.46
2022-12-11T20:45:06.512Z,31.47
2022-12-11T20:47:38.347Z,31.43
2022-12-11T20:50:11.337Z,31.43
2022-12-11T20:52:43.606Z,31.41
2022-12-11T20:55:15.788Z,31.42
2022-12-11T20:57:47.631Z,31.42
2022-12-11T21:00:19.447Z,31.44
2022-12-11T21:02:51.381Z,31.42
2022-12-11T21:05:23.514Z,31.42
2022-12-11T21:07:56.527Z,31.43
2022-12-11T21:10:28.364Z,31.42
2022-12-11T21:13:00.205Z,31.41
2022-12-11T21:15:34.960Z,31.45
2022-12-11T21:18:07.107Z,31.46
2022-12-11T21:20:38.939Z,31.46
2022-12-11T21:23:10.666Z,31.48
2022-12-11T21:25:42.707Z,31.46
2022-12-11T21:28:14.459Z,31.48
2022-12-11T21:30:46.415Z,31.51
2022-12-11T21:33:18.148Z,31.47
2022-12-11T21:35:59.638Z,31.49
2022-12-11T21:38:31.729Z,31.51
2022-12-11T21:41:14.011Z,31.57
2022-12-11T21:44:47.049Z,31.63
2022-12-11T21:46:38.526Z,31.69
2022-12-11T21:49:10.467Z,31.77
2022-12-11T21:51:46.906Z,31.82
2022-12-11T21:54:19.710Z,31.84
2022-12-11T21:56:51.500Z,31.89
2022-12-11T21:59:23.311Z,31.93
2022-12-11T22:01:55.127Z,31.97
2022-12-11T22:04:27.025Z,32.00
2022-12-11T22:06:58.990Z,32.05
2022-12-11T22:09:30.760Z,32.09
2022-12-11T22:12:02.562Z,32.11
2022-12-11T22:14:36.183Z,32.17
2022-12-11T22:17:07.976Z,32.20
2022-12-11T22:19:39.752Z,32.22
2022-12-11T22:22:11.927Z,32.27
2022-12-11T22:24:43.839Z,32.29
2022-12-11T22:27:20.414Z,32.32
2022-12-11T22:29:55.333Z,32.36
2022-12-11T22:32:27.925Z,32.40
2022-12-11T22:34:59.741Z,32.44
2022-12-11T22:37:31.590Z,32.46
2022-12-11T22:40:04.004Z,32.50
2022-12-11T22:42:35.788Z,32.53
2022-12-11T22:45:08.249Z,32.57
2022-12-11T22:47:40.157Z,32.61
2022-12-11T22:50:15.691Z,32.66
2022-12-11T22:52:48.428Z,32.69
2022-12-11T22:55:20.177Z,32.75
2022-12-11T22:57:51.952Z,32.79
2022-12-11T23:00:23.798Z,32.83
2022-12-11T23:02:55.886Z,32.88
2022-12-11T23:05:27.883Z,32.94
2022-12-11T23:07:59.752Z,32.98
2022-12-11T23:10:31.774Z,33.03
2022-12-11T23:13:03.623Z,33.08
2022-12-11T23:15:35.524Z,33.12
2022-12-11T23:18:07.358Z,33.16
2022-12-11T23:20:39.167Z,33.20
2022-12-11T23:23:11.426Z,33.24
2022-12-11T23:25:43.202Z,33.27
2022-12-11T23:28:14.995Z,33.32
2022-12-11T23:30:47.332Z,33.35
2022-12-11T23:33:19.238Z,33.38
2022-12-11T23:35:50.955Z,33.43
2022-12-11T23:38:22.755Z,33.46
2022-12-11T23:40:54.768Z,33.50
2022-12-11T23:43:26.660Z,33.55
2022-12-11T23:45:58.785Z,33.59
2022-12-11T23:48:31.434Z,33.63
2022-12-11T23:51:04.251Z,33.67
2022-12-11T23:53:36.393Z,33.74
2022-12-11T23:56:10.017Z,33.78
2022-12-11T23:58:41.914Z,33.82
